Time;durP1;ratioP1;P1;durP2;ratioP2;P2;SDS_P1;SDS_P2;PMS_P1;PMS_P2;Temp;Humidity;BMP_temperature;BMP_pressure;BME280_temperature;BME280_humidity;BME280_pressure;Samples;Min_cycle;Max_cycle;Signal;HPM_P1;HPM_P2
2021/12/11 00:00:09;;;;;;;70.80;34.55;;;-2.00;99.90;;;;;;4994838;28;20112;-92
2021/12/11 00:02:35;;;;;;;65.72;34.33;;;-1.90;99.90;;;;;;4994359;28;20401;-92
2021/12/11 00:05:01;;;;;;;70.57;32.72;;;-2.00;99.90;;;;;;4977920;28;20051;-93
2021/12/11 00:07:28;;;;;;;71.65;34.38;;;-2.00;99.90;;;;;;4994340;28;20086;-91
2021/12/11 00:10:23;;;;;;;73.88;34.13;;;-1.50;99.90;;;;;;4978333;28;20869;-92
2021/12/11 00:12:52;;;;;;;71.00;33.55;;;-2.00;99.90;;;;;;4978578;28;20050;-93
2021/12/11 00:15:24;;;;;;;67.82;32.80;;;-0.50;99.90;;;;;;4977387;28;20050;-92
2021/12/11 00:17:57;;;;;;;70.85;32.67;;;-2.00;99.90;;;;;;4978920;28;20050;-90
2021/12/11 00:20:25;;;;;;;68.35;32.90;;;-2.10;99.90;;;;;;4977463;28;20092;-93
2021/12/11 00:22:51;;;;;;;60.00;30.42;;;-2.10;99.90;;;;;;4977568;28;20050;-90
2021/12/11 00:25:17;;;;;;;64.32;30.08;;;-0.90;99.90;;;;;;4977445;28;20501;-92
2021/12/11 00:27:47;;;;;;;57.42;29.23;;;-2.10;99.90;;;;;;4977831;28;20042;-92
2021/12/11 00:30:23;;;;;;;51.47;27.88;;;-1.90;99.90;;;;;;4977428;28;20050;-91
2021/12/11 00:32:48;;;;;;;53.53;27.63;;;-2.10;99.90;;;;;;4993794;28;20046;-91
2021/12/11 00:35:20;;;;;;;60.58;29.75;;;-2.20;99.90;;;;;;4976837;28;20455;-88
2021/12/11 00:37:47;;;;;;;59.63;28.95;;;-2.10;99.90;;;;;;4994035;28;20108;-92
2021/12/11 00:40:24;;;;;;;60.45;28.75;;;-2.10;99.90;;;;;;4977137;28;20061;-91
2021/12/11 00:42:52;;;;;;;58.55;28.17;;;-2.20;99.90;;;;;;4977591;28;20487;-92
2021/12/11 00:45:20;;;;;;;59.15;28.65;;;-2.10;99.90;;;;;;4976862;28;20133;-91
2021/12/11 00:47:50;;;;;;;65.13;28.38;;;-2.70;99.90;;;;;;4976588;28;20069;-92
2021/12/11 00:50:17;;;;;;;62.30;29.63;;;-2.20;99.90;;;;;;4992687;28;20105;-91
2021/12/11 00:52:46;;;;;;;60.42;30.60;;;-1.00;99.90;;;;;;4977421;28;20054;-91
2021/12/11 00:55:33;;;;;;;69.65;31.90;;;-2.20;99.90;;;;;;4976919;28;20050;-93
2021/12/11 00:58:30;;;;;;;67.25;32.35;;;-2.20;99.90;;;;;;4977312;28;20050;-92
2021/12/11 01:01:02;;;;;;;70.07;33.60;;;-2.20;99.90;;;;;;4979953;28;20066;-90
2021/12/11 01:03:42;;;;;;;66.22;32.17;;;-2.20;99.90;;;;;;4992510;28;20132;-92
2021/12/11 01:06:14;;;;;;;63.20;31.85;;;-2.20;99.90;;;;;;4976612;28;20050;-93
2021/12/11 01:08:43;;;;;;;65.75;30.48;;;-2.20;99.90;;;;;;4976873;28;20050;-89
2021/12/11 01:11:21;;;;;;;57.13;28.30;;;-2.30;99.90;;;;;;4976437;28;20058;-92
2021/12/11 01:13:52;;;;;;;57.85;27.98;;;-2.30;99.90;;;;;;4976846;28;20065;-88
2021/12/11 01:16:18;;;;;;;59.55;27.73;;;-2.30;99.90;;;;;;4976131;28;20054;-89
2021/12/11 01:18:46;;;;;;;53.38;25.80;;;-1.60;99.90;;;;;;4978092;28;20050;-90
2021/12/11 01:24:42;;;;;;;55.67;25.13;;;-2.30;99.90;;;;;;4917036;29;20192;-91
2021/12/11 01:27:04;;;;;;;53.78;25.73;;;-2.30;99.90;;;;;;4979337;28;20112;-89
2021/12/11 01:29:30;;;;;;;55.58;26.17;;;-2.30;99.90;;;;;;4998978;28;20129;-90
2021/12/11 01:31:57;;;;;;;57.13;26.50;;;-2.40;99.90;;;;;;4976382;28;20054;-88
2021/12/11 01:34:23;;;;;;;50.05;25.30;;;-1.60;99.90;;;;;;4975841;28;20054;-92
2021/12/11 01:36:50;;;;;;;55.35;25.25;;;-2.40;99.90;;;;;;4976505;28;20054;-91
2021/12/11 01:39:18;;;;;;;60.10;27.75;;;-2.40;99.90;;;;;;4975721;28;20081;-91
2021/12/11 01:41:44;;;;;;;71.15;29.58;;;-2.40;99.90;;;;;;4992101;28;20050;-90
2021/12/11 01:44:13;;;;;;;63.40;28.73;;;-2.40;99.90;;;;;;4975407;28;20106;-87
2021/12/11 01:46:40;;;;;;;60.05;27.75;;;-2.40;99.90;;;;;;4991816;28;20050;-89
2021/12/11 01:49:10;;;;;;;63.55;29.35;;;-2.40;99.90;;;;;;4991322;28;20522;-91
2021/12/11 01:51:39;;;;;;;58.97;28.75;;;-2.40;99.90;;;;;;4992895;28;20130;-92
2021/12/11 01:54:17;;;;;;;61.65;29.90;;;-2.30;99.90;;;;;;4976139;28;20255;-91
2021/12/11 01:56:48;;;;;;;63.05;30.42;;;-2.40;99.90;;;;;;4976192;28;20052;-90
2021/12/11 01:59:20;;;;;;;69.82;30.73;;;-2.40;99.90;;;;;;4975727;28;20124;-91
2021/12/11 02:02:01;;;;;;;56.75;28.48;;;-2.40;99.90;;;;;;4976015;28;20050;-94
2021/12/11 02:04:28;;;;;;;62.38;28.77;;;-2.40;99.90;;;;;;4991765;28;20170;-89
2021/12/11 02:06:54;;;;;;;52.58;27.17;;;-2.40;99.90;;;;;;4959705;28;20470;-92
2021/12/11 02:09:28;;;;;;;54.03;26.58;;;-2.40;99.90;;;;;;4990833;28;20086;-89
2021/12/11 02:12:12;;;;;;;56.15;28.17;;;-2.50;99.90;;;;;;4975213;28;20089;-89
2021/12/11 02:14:43;;;;;;;56.05;26.98;;;-2.50;99.90;;;;;;4974705;28;20057;-89
2021/12/11 02:17:23;;;;;;;52.30;26.70;;;-2.50;99.90;;;;;;4959193;28;20054;-90
2021/12/11 02:19:49;;;;;;;60.65;28.33;;;-2.50;99.90;;;;;;4991279;28;20176;-88
2021/12/11 02:22:21;;;;;;;62.13;28.67;;;-2.50;99.90;;;;;;4974476;28;20129;-85
2021/12/11 02:24:48;;;;;;;66.65;29.40;;;-2.50;99.90;;;;;;4958777;28;20046;-89
2021/12/11 02:27:26;;;;;;;63.70;29.20;;;-1.80;99.90;;;;;;4974704;28;20050;-90
2021/12/11 02:30:06;;;;;;;64.03;29.48;;;-2.40;99.90;;;;;;4974885;28;20051;-90
2021/12/11 02:32:35;;;;;;;64.10;28.80;;;-2.40;99.90;;;;;;4986015;28;20054;-89
2021/12/11 02:35:18;;;;;;;64.25;29.85;;;-2.40;99.90;;;;;;4978212;28;20431;-90
2021/12/11 02:38:09;;;;;;;64.43;29.88;;;-2.40;99.90;;;;;;4960436;28;20058;-89
2021/12/11 02:40:48;;;;;;;71.97;31.08;;;-2.40;99.90;;;;;;4974982;28;20050;-90
2021/12/11 02:43:37;;;;;;;69.78;30.15;;;-2.40;99.90;;;;;;4990508;28;20116;-90
2021/12/11 02:46:05;;;;;;;71.60;31.02;;;-2.40;99.90;;;;;;4974788;28;20086;-90
2021/12/11 02:48:35;;;;;;;62.97;30.98;;;-2.40;99.90;;;;;;4989370;28;20133;-91
2021/12/11 02:51:12;;;;;;;72.13;32.83;;;-2.40;99.90;;;;;;4990507;28;20062;-91
2021/12/11 02:53:44;;;;;;;71.97;32.17;;;-2.40;99.90;;;;;;4957914;28;20086;-91
2021/12/11 02:56:19;;;;;;;73.80;31.77;;;-2.40;99.90;;;;;;4974538;28;20058;-90
2021/12/11 02:58:47;;;;;;;68.78;30.63;;;-2.40;99.90;;;;;;4958172;28;20065;-91
2021/12/11 03:01:23;;;;;;;64.00;29.02;;;-2.50;99.90;;;;;;4974387;28;20069;-90
2021/12/11 03:03:54;;;;;;;63.75;30.02;;;-2.50;99.90;;;;;;4974927;28;20384;-92
2021/12/11 03:06:24;;;;;;;60.13;28.55;;;-2.50;99.90;;;;;;4974627;28;20104;-86
2021/12/11 03:08:50;;;;;;;61.28;27.88;;;-2.50;99.90;;;;;;4990411;28;20779;-90
2021/12/11 03:11:17;;;;;;;55.88;27.48;;;-2.00;99.90;;;;;;4989277;28;20061;-91
2021/12/11 03:13:50;;;;;;;60.50;28.45;;;-2.50;99.90;;;;;;4973498;28;20158;-91
2021/12/11 03:16:19;;;;;;;57.95;27.42;;;-2.50;99.90;;;;;;4958974;28;20057;-89
2021/12/11 03:18:44;;;;;;;62.08;29.40;;;-2.50;99.90;;;;;;4973756;28;20428;-89
2021/12/11 03:21:10;;;;;;;60.40;27.88;;;-1.60;99.90;;;;;;4974200;28;20218;-87
2021/12/11 03:23:36;;;;;;;62.67;29.15;;;-2.50;99.90;;;;;;4973246;28;20053;-90
2021/12/11 03:26:02;;;;;;;64.80;30.92;;;-1.40;99.90;;;;;;4974027;28;20050;-91
2021/12/11 03:28:27;;;;;;;64.60;30.60;;;-2.40;99.90;;;;;;4973396;28;20042;-90
2021/12/11 03:30:57;;;;;;;64.50;30.83;;;-2.30;99.90;;;;;;4991342;28;20105;-90
2021/12/11 03:33:25;;;;;;;66.93;31.15;;;-2.40;99.90;;;;;;4974416;28;20085;-85
2021/12/11 03:35:51;;;;;;;71.25;31.92;;;-2.40;99.90;;;;;;4973897;28;20046;-90
2021/12/11 03:38:16;;;;;;;64.03;30.35;;;-2.40;99.90;;;;;;4973828;28;20065;-89
2021/12/11 03:40:42;;;;;;;65.28;30.77;;;-2.40;99.90;;;;;;4992402;28;20042;-88
2021/12/11 03:43:09;;;;;;;66.22;29.77;;;-2.40;99.90;;;;;;4991342;28;20042;-90
2021/12/11 03:45:36;;;;;;;69.35;30.85;;;-1.30;99.90;;;;;;4983858;28;20054;-90
2021/12/11 03:48:15;;;;;;;70.43;32.92;;;-2.50;99.90;;;;;;4974064;28;20058;-91
2021/12/11 03:50:41;;;;;;;70.10;31.48;;;-2.40;99.90;;;;;;4973733;28;20054;-89
2021/12/11 03:53:07;;;;;;;67.85;30.95;;;-2.50;99.90;;;;;;4974075;28;20476;-88
2021/12/11 03:55:38;;;;;;;67.22;31.23;;;-2.50;99.90;;;;;;4989870;28;20050;-90
2021/12/11 03:58:04;;;;;;;75.18;33.25;;;-2.50;99.90;;;;;;4974404;28;20115;-90
2021/12/11 04:00:37;;;;;;;76.50;33.65;;;-1.70;99.90;;;;;;4974903;28;20050;-90
2021/12/11 04:03:06;;;;;;;76.28;34.83;;;-2.40;99.90;;;;;;4994343;28;20418;-89
2021/12/11 04:05:36;;;;;;;88.72;37.28;;;-2.40;99.90;;;;;;4978126;28;20116;-90
2021/12/11 04:08:03;;;;;;;83.78;36.40;;;-2.30;99.90;;;;;;4995933;28;20057;-89
2021/12/11 04:10:29;;;;;;;97.13;38.00;;;-2.20;99.90;;;;;;4975711;28;20553;-85
2021/12/11 04:12:59;;;;;;;90.22;38.67;;;-2.20;99.90;;;;;;4973512;28;20065;-89
2021/12/11 04:15:25;;;;;;;94.05;37.60;;;-2.20;99.90;;;;;;4973451;28;20105;-90
2021/12/11 04:17:51;;;;;;;84.63;37.92;;;-2.20;99.90;;;;;;4973121;28;20045;-90
2021/12/11 04:20:18;;;;;;;94.18;36.95;;;-2.20;99.90;;;;;;4989495;28;20045;-91
2021/12/11 04:22:44;;;;;;;92.95;37.65;;;-2.20;99.90;;;;;;4989824;28;20050;-90
2021/12/11 04:25:11;;;;;;;84.78;35.55;;;-2.20;99.90;;;;;;4993260;28;20479;-90
2021/12/11 04:27:37;;;;;;;76.25;35.13;;;-2.20;99.90;;;;;;4992616;28;20402;-92
2021/12/11 04:30:08;;;;;;;81.22;33.80;;;-2.30;99.90;;;;;;4977114;28;20060;-90
2021/12/11 04:32:35;;;;;;;80.20;34.58;;;-2.40;99.90;;;;;;4960554;28;20085;-89
2021/12/11 04:35:02;;;;;;;80.55;35.20;;;-2.40;99.90;;;;;;4976696;28;20491;-90
2021/12/11 04:37:30;;;;;;;85.20;35.63;;;-2.40;99.90;;;;;;4977220;28;20350;-90
2021/12/11 04:40:00;;;;;;;80.93;34.92;;;-0.90;99.90;;;;;;4977054;28;20050;-92
2021/12/11 04:44:59;;;;;;;86.60;36.92;;;-1.20;99.90;;;;;;4995752;28;20054;-89
2021/12/11 04:47:46;;;;;;;81.15;36.58;;;-2.40;99.90;;;;;;4977749;28;20054;-91
2021/12/11 04:50:21;;;;;;;85.20;35.55;;;-1.70;99.90;;;;;;4979387;28;20132;-92
2021/12/11 04:52:54;;;;;;;101.22;38.50;;;-2.50;99.90;;;;;;4977170;28;20054;-89
2021/12/11 04:55:40;;;;;;;112.30;41.28;;;-2.40;99.90;;;;;;4992934;28;20058;-90
2021/12/11 05:09:41;;;;;;;123.07;43.90;;;-2.10;99.90;;;;;;4971712;28;20050;-91
2021/12/11 05:12:35;;;;;;;127.20;45.40;;;-2.10;99.90;;;;;;4979003;28;20050;-90
2021/12/11 05:15:05;;;;;;;130.93;48.35;;;-2.10;99.90;;;;;;4979039;28;20161;-93
2021/12/11 05:17:30;;;;;;;122.55;46.95;;;-2.00;99.90;;;;;;4992298;28;20391;-91
2021/12/11 05:19:56;;;;;;;139.43;47.50;;;-2.00;99.90;;;;;;4975769;28;20050;-91
2021/12/11 05:22:22;;;;;;;130.73;47.55;;;-2.10;99.90;;;;;;4976089;28;20383;-89
2021/12/11 05:24:49;;;;;;;141.43;48.17;;;-2.00;99.90;;;;;;4992156;28;20057;-91
2021/12/11 05:27:15;;;;;;;127.20;45.97;;;-2.10;99.90;;;;;;4992287;28;20105;-89
2021/12/11 05:29:41;;;;;;;119.68;44.97;;;-2.10;99.90;;;;;;4975620;28;20554;-90
2021/12/11 05:32:08;;;;;;;114.22;42.72;;;-1.30;99.90;;;;;;4975984;28;20069;-90
2021/12/11 05:34:34;;;;;;;110.88;43.17;;;-2.20;99.90;;;;;;4974715;28;20054;-89
2021/12/11 05:36:59;;;;;;;101.88;41.78;;;-2.20;99.90;;;;;;4975777;28;20057;-89
2021/12/11 05:39:25;;;;;;;111.88;41.63;;;-2.20;99.90;;;;;;4976175;28;20054;-89
2021/12/11 05:41:51;;;;;;;113.97;42.45;;;-2.30;99.90;;;;;;4992199;28;20049;-91
2021/12/11 05:44:17;;;;;;;95.18;40.10;;;-2.30;99.90;;;;;;4992476;28;20125;-91
2021/12/11 05:46:43;;;;;;;97.03;39.65;;;-2.30;99.90;;;;;;4976895;28;20050;-90
2021/12/11 05:49:09;;;;;;;108.68;41.38;;;-2.40;99.90;;;;;;4992587;28;20104;-90
2021/12/11 05:51:38;;;;;;;107.97;42.17;;;-1.10;99.90;;;;;;4977875;28;20098;-91
2021/12/11 05:54:09;;;;;;;103.88;41.00;;;-2.40;99.90;;;;;;4977646;28;20049;-91
2021/12/11 05:56:37;;;;;;;105.80;41.70;;;-2.30;99.90;;;;;;4977696;28;20050;-91
2021/12/11 05:59:04;;;;;;;108.00;41.83;;;-1.10;99.90;;;;;;4977470;28;20644;-89
2021/12/11 06:01:35;;;;;;;94.68;38.72;;;-2.40;99.90;;;;;;4992756;28;20093;-93
2021/12/11 06:04:05;;;;;;;98.57;41.45;;;-2.40;99.90;;;;;;4976117;28;20050;-91
2021/12/11 06:06:31;;;;;;;104.63;39.42;;;-2.40;99.90;;;;;;4976754;28;20447;-90
2021/12/11 06:08:57;;;;;;;106.95;41.15;;;-2.50;99.90;;;;;;4975662;28;20138;-88
2021/12/11 06:11:22;;;;;;;94.15;38.33;;;-2.50;99.90;;;;;;4991909;28;20133;-91
2021/12/11 06:13:48;;;;;;;101.68;41.75;;;-2.50;99.90;;;;;;4975572;28;20089;-91
2021/12/11 06:16:14;;;;;;;106.43;40.40;;;-2.50;99.90;;;;;;4991864;28;20058;-91
2021/12/11 06:18:41;;;;;;;104.18;41.80;;;-2.50;99.90;;;;;;4977540;28;20054;-92
2021/12/11 06:21:07;;;;;;;93.03;39.92;;;-2.50;99.90;;;;;;4977496;28;20113;-91
2021/12/11 06:23:33;;;;;;;99.78;40.35;;;-2.50;99.90;;;;;;4993663;28;20046;-90
2021/12/11 06:25:58;;;;;;;87.55;38.13;;;-2.60;99.90;;;;;;4976049;28;20050;-91
2021/12/11 06:28:26;;;;;;;99.30;39.90;;;-2.60;99.90;;;;;;4992871;28;20134;-90
2021/12/11 06:30:52;;;;;;;98.85;41.00;;;-2.50;99.90;;;;;;4975645;28;20108;-89
2021/12/11 06:33:20;;;;;;;94.50;39.10;;;-2.60;99.90;;;;;;4977863;28;20053;-91
2021/12/11 06:35:47;;;;;;;103.15;41.30;;;-2.60;99.90;;;;;;4993775;28;20058;-85
2021/12/11 06:38:15;;;;;;;96.47;39.65;;;-1.80;99.90;;;;;;4979318;28;20490;-91
2021/12/11 06:40:40;;;;;;;103.47;41.28;;;-1.40;99.90;;;;;;4975833;28;20487;-91
2021/12/11 06:43:06;;;;;;;95.35;41.17;;;-2.60;99.90;;;;;;4992043;28;20050;-92
2021/12/11 06:45:32;;;;;;;96.95;38.85;;;-2.60;99.90;;;;;;4978703;28;20507;-88
2021/12/11 06:47:58;;;;;;;95.35;40.55;;;-2.70;99.90;;;;;;4979734;28;20042;-89
2021/12/11 06:50:24;;;;;;;95.22;40.33;;;-2.10;99.90;;;;;;4993997;28;20053;-92
2021/12/11 06:52:50;;;;;;;93.65;39.95;;;-2.70;99.90;;;;;;4976243;28;20486;-89
2021/12/11 06:55:17;;;;;;;97.40;41.47;;;-1.70;99.90;;;;;;4992912;28;20088;-91
2021/12/11 06:57:43;;;;;;;101.22;41.45;;;-2.70;99.90;;;;;;4992416;28;20050;-91
2021/12/11 07:00:09;;;;;;;108.97;42.20;;;-2.70;99.90;;;;;;4991330;28;20047;-91
2021/12/11 07:02:35;;;;;;;109.53;42.63;;;-2.70;99.90;;;;;;4974811;28;20042;-91
2021/12/11 07:05:01;;;;;;;118.57;43.47;;;-2.70;99.90;;;;;;4990302;28;20101;-90
2021/12/11 07:07:32;;;;;;;104.70;42.00;;;-2.70;99.90;;;;;;4991004;28;20096;-89
2021/12/11 07:09:58;;;;;;;107.05;41.58;;;-2.70;99.90;;;;;;4959175;28;20054;-89
2021/12/11 07:12:24;;;;;;;104.93;40.78;;;-2.70;99.90;;;;;;4975247;28;20066;-88
2021/12/11 07:14:51;;;;;;;113.20;43.53;;;-1.70;99.90;;;;;;4973981;28;20130;-85
2021/12/11 07:17:17;;;;;;;98.35;41.88;;;-2.70;99.90;;;;;;4990403;28;20125;-90
2021/12/11 07:19:43;;;;;;;98.28;42.40;;;-2.60;99.90;;;;;;4990277;28;20133;-90
2021/12/11 07:22:09;;;;;;;99.40;41.63;;;-2.60;99.90;;;;;;4973517;28;20050;-91
2021/12/11 07:24:38;;;;;;;106.55;42.85;;;-2.60;99.90;;;;;;4974537;28;20057;-93
2021/12/11 07:27:06;;;;;;;102.18;42.75;;;-2.60;99.90;;;;;;4973850;28;20050;-91
2021/12/11 07:29:32;;;;;;;98.25;42.15;;;-2.60;99.90;;;;;;4974237;28;20117;-92
2021/12/11 07:31:57;;;;;;;93.38;39.90;;;-2.50;99.90;;;;;;4989743;28;20057;-89
2021/12/11 07:34:23;;;;;;;92.07;38.63;;;-2.60;99.90;;;;;;4958219;28;20046;-90
2021/12/11 07:36:50;;;;;;;98.88;40.47;;;-2.60;99.90;;;;;;4974231;28;20565;-92
2021/12/11 07:39:16;;;;;;;101.82;40.58;;;-2.50;99.90;;;;;;4990183;28;20050;-92
2021/12/11 07:41:42;;;;;;;101.30;41.33;;;-2.60;99.90;;;;;;4974548;28;20046;-93
2021/12/11 07:44:08;;;;;;;95.70;40.63;;;-1.60;99.90;;;;;;4973552;28;20498;-92
2021/12/11 07:46:34;;;;;;;98.20;42.00;;;-1.80;99.90;;;;;;4974331;28;20078;-90
2021/12/11 07:49:02;;;;;;;92.07;41.22;;;-1.60;99.90;;;;;;4973619;28;20514;-90
2021/12/11 07:51:28;;;;;;;98.28;41.63;;;-2.60;99.90;;;;;;4990533;28;20058;-92
2021/12/11 07:53:54;;;;;;;104.47;42.00;;;-2.00;99.90;;;;;;4974596;28;20594;-86
2021/12/11 07:56:20;;;;;;;108.90;43.90;;;-2.50;99.90;;;;;;4974018;28;20142;-91
2021/12/11 07:58:47;;;;;;;96.35;40.95;;;-2.50;99.90;;;;;;4977101;28;20053;-91
2021/12/11 08:01:13;;;;;;;110.00;44.90;;;-2.50;99.90;;;;;;4961733;28;20050;-92
2021/12/11 08:03:39;;;;;;;111.75;45.15;;;-2.40;99.90;;;;;;4978133;28;20096;-91
2021/12/11 08:06:06;;;;;;;115.03;45.17;;;-2.40;99.90;;;;;;4977061;28;20058;-87
2021/12/11 08:08:31;;;;;;;109.47;44.45;;;-1.90;99.90;;;;;;4976931;28;20088;-88
2021/12/11 08:10:59;;;;;;;121.80;46.40;;;-2.30;99.90;;;;;;4976001;28;20081;-86
2021/12/11 08:13:25;;;;;;;108.63;46.30;;;-2.20;99.90;;;;;;4976548;28;20066;-87
2021/12/11 08:15:50;;;;;;;114.28;46.20;;;-2.20;99.90;;;;;;4960446;28;20104;-85
2021/12/11 08:18:17;;;;;;;123.65;49.28;;;-2.10;99.90;;;;;;4976132;28;20280;-87
2021/12/11 08:20:43;;;;;;;123.63;47.75;;;-2.10;99.90;;;;;;4960630;28;20050;-88
2021/12/11 08:23:09;;;;;;;126.18;49.92;;;-2.10;99.90;;;;;;4959735;28;20133;-87
2021/12/11 08:25:36;;;;;;;121.93;49.47;;;-2.00;99.90;;;;;;4992702;28;20554;-87
2021/12/11 08:28:01;;;;;;;130.55;54.80;;;-1.90;99.90;;;;;;4976393;28;20137;-88
2021/12/11 08:30:28;;;;;;;121.88;54.22;;;-1.70;99.90;;;;;;4976777;28;20130;-87
2021/12/11 08:32:54;;;;;;;123.40;52.78;;;-0.80;99.90;;;;;;4976392;28;20062;-86
2021/12/11 08:35:20;;;;;;;118.35;50.15;;;-1.60;99.90;;;;;;4986252;28;20068;-87
2021/12/11 08:37:47;;;;;;;114.18;48.42;;;-0.20;99.90;;;;;;4992879;28;20450;-85
2021/12/11 08:40:17;;;;;;;113.63;48.33;;;-1.40;99.90;;;;;;4974902;28;20057;-86
2021/12/11 08:42:43;;;;;;;120.97;48.60;;;-1.20;99.90;;;;;;4991904;28;20069;-87
2021/12/11 08:45:11;;;;;;;123.63;52.72;;;-0.90;99.90;;;;;;4976019;28;20483;-87
2021/12/11 08:47:39;;;;;;;122.10;54.55;;;0.60;99.90;;;;;;4973127;28;20562;-85
2021/12/11 08:50:06;;;;;;;113.45;55.45;;;0.90;99.90;;;;;;4993559;28;20065;-86
2021/12/11 08:52:34;;;;;;;115.30;53.60;;;0.20;99.90;;;;;;4988266;28;20061;-88
2021/12/11 08:55:01;;;;;;;117.80;55.45;;;0.80;99.90;;;;;;4980782;28;20039;-87
2021/12/11 08:57:29;;;;;;;111.75;55.15;;;2.60;99.90;;;;;;4976107;28;20384;-86
2021/12/11 08:59:57;;;;;;;108.75;56.10;;;1.90;99.90;;;;;;4959880;28;20058;-88
2021/12/11 09:02:32;;;;;;;82.30;46.38;;;2.70;99.90;;;;;;4991542;28;20068;-86
2021/12/11 09:05:08;;;;;;;69.07;39.60;;;2.40;99.90;;;;;;4991845;28;20129;-86
2021/12/11 09:07:41;;;;;;;63.40;38.08;;;2.90;99.90;;;;;;4993189;28;20133;-87
2021/12/11 09:10:15;;;;;;;61.88;33.90;;;3.10;99.90;;;;;;4974935;28;20058;-87
2021/12/11 09:12:47;;;;;;;57.80;31.80;;;3.30;99.90;;;;;;4976392;28;20060;-85
2021/12/11 09:15:18;;;;;;;52.97;30.08;;;4.70;99.90;;;;;;4975392;28;20054;-85
2021/12/11 09:17:47;;;;;;;43.97;27.70;;;3.60;99.90;;;;;;4991899;28;20379;-82
2021/12/11 09:20:37;;;;;;;49.65;29.77;;;3.90;99.90;;;;;;4991233;28;20058;-86
2021/12/11 09:23:18;;;;;;;54.25;30.77;;;5.10;99.90;;;;;;4978152;28;20058;-86
2021/12/11 09:25:54;;;;;;;51.65;30.48;;;3.40;99.90;;;;;;4991681;28;20455;-85
2021/12/11 09:28:27;;;;;;;49.70;30.38;;;2.90;99.90;;;;;;4975730;28;20450;-86
2021/12/11 09:31:08;;;;;;;54.60;29.45;;;2.70;99.90;;;;;;4991577;28;20405;-86
2021/12/11 09:33:37;;;;;;;60.22;32.05;;;3.40;99.90;;;;;;4991508;28;20491;-86
2021/12/11 09:36:12;;;;;;;58.58;31.70;;;2.10;99.90;;;;;;4991114;28;20060;-85
2021/12/11 09:38:43;;;;;;;64.03;33.80;;;1.90;99.90;;;;;;4975322;28;20129;-85
2021/12/11 09:41:19;;;;;;;61.67;33.67;;;2.10;99.90;;;;;;4990634;28;20149;-84
2021/12/11 09:43:48;;;;;;;57.90;34.35;;;2.10;99.90;;;;;;4990359;28;20402;-85
2021/12/11 09:46:16;;;;;;;61.47;33.50;;;2.00;99.90;;;;;;4981523;28;20130;-85
2021/12/11 09:48:42;;;;;;;73.32;36.33;;;2.10;99.90;;;;;;4981017;28;20058;-85
2021/12/11 09:51:12;;;;;;;68.75;36.08;;;2.60;99.90;;;;;;4990757;28;20073;-86
2021/12/11 09:53:42;;;;;;;76.00;36.95;;;1.80;99.90;;;;;;4990765;28;20054;-86
2021/12/11 09:56:11;;;;;;;72.32;38.30;;;1.70;99.90;;;;;;4974934;28;20061;-88
2021/12/11 09:58:37;;;;;;;73.13;37.63;;;1.70;99.90;;;;;;4990650;28;20061;-85
2021/12/11 10:01:20;;;;;;;77.88;38.85;;;2.00;99.90;;;;;;4974502;28;20054;-86
2021/12/11 10:03:53;;;;;;;73.28;37.80;;;1.90;99.90;;;;;;4974647;28;20082;-87
2021/12/11 10:06:39;;;;;;;64.95;35.33;;;1.90;99.90;;;;;;4958000;28;20098;-86
2021/12/11 10:09:18;;;;;;;70.60;35.13;;;2.00;99.90;;;;;;4975931;28;20119;-86
2021/12/11 10:11:58;;;;;;;70.00;35.75;;;2.20;99.90;;;;;;4975632;28;20051;-85
2021/12/11 10:14:27;;;;;;;66.10;36.20;;;2.40;99.90;;;;;;4990171;28;20058;-86
2021/12/11 10:16:55;;;;;;;66.53;35.83;;;2.30;99.90;;;;;;4990774;28;20410;-86
2021/12/11 10:19:20;;;;;;;66.50;35.72;;;2.30;99.90;;;;;;4973484;28;20054;-86
2021/12/11 10:21:52;;;;;;;71.78;36.97;;;2.20;99.90;;;;;;4973716;28;20468;-86
2021/12/11 10:24:20;;;;;;;67.68;35.20;;;2.20;99.90;;;;;;4957271;28;20046;-87
2021/12/11 10:26:46;;;;;;;71.60;37.78;;;2.10;99.90;;;;;;4974106;28;20484;-85
2021/12/11 10:29:12;;;;;;;63.70;35.35;;;2.90;99.90;;;;;;4974057;28;20054;-87
2021/12/11 10:31:40;;;;;;;69.22;35.03;;;3.00;99.90;;;;;;4973507;28;20498;-86
2021/12/11 10:34:09;;;;;;;73.57;37.50;;;2.00;99.90;;;;;;4974189;28;20050;-87
2021/12/11 10:36:38;;;;;;;67.28;36.10;;;2.50;99.90;;;;;;4973827;28;20058;-89
2021/12/11 10:39:06;;;;;;;67.43;35.00;;;1.90;99.90;;;;;;4990719;28;20760;-84
2021/12/11 10:41:32;;;;;;;67.55;36.65;;;2.30;99.90;;;;;;4974285;28;20061;-88
2021/12/11 10:44:32;;;;;;;65.68;35.15;;;2.20;99.90;;;;;;4974552;28;20049;-88
2021/12/11 10:47:00;;;;;;;69.00;35.28;;;2.30;99.90;;;;;;4961720;28;20146;-84
2021/12/11 10:49:26;;;;;;;65.10;34.55;;;2.80;99.90;;;;;;4974208;28;20066;-87
2021/12/11 10:52:04;;;;;;;69.45;34.97;;;3.30;99.90;;;;;;4992347;28;20054;-88
2021/12/11 10:54:30;;;;;;;68.57;35.20;;;2.30;99.90;;;;;;4998715;28;20065;-86
2021/12/11 10:56:55;;;;;;;64.47;33.67;;;2.60;99.90;;;;;;5002529;28;20068;-87
2021/12/11 10:59:24;;;;;;;61.22;34.58;;;3.10;99.90;;;;;;4957803;28;20058;-87
2021/12/11 11:01:54;;;;;;;63.05;32.72;;;2.20;99.90;;;;;;4974819;28;20050;-88
2021/12/11 11:04:34;;;;;;;62.90;33.55;;;2.30;99.90;;;;;;4973765;28;20081;-83
2021/12/11 11:07:01;;;;;;;60.03;33.10;;;2.30;99.90;;;;;;4975158;28;20081;-91
2021/12/11 11:09:27;;;;;;;67.70;32.88;;;2.60;99.90;;;;;;4989938;28;20062;-86
2021/12/11 11:11:57;;;;;;;64.90;34.42;;;2.40;99.90;;;;;;4990580;28;20054;-86
2021/12/11 11:14:22;;;;;;;58.90;33.92;;;2.40;99.90;;;;;;4990300;28;20057;-85
2021/12/11 11:16:51;;;;;;;59.20;33.80;;;2.60;99.90;;;;;;4990667;28;20545;-89
2021/12/11 11:19:20;;;;;;;65.40;35.05;;;2.50;99.90;;;;;;4974720;28;20054;-88
2021/12/11 11:21:46;;;;;;;59.45;34.45;;;2.50;99.90;;;;;;4990180;28;20054;-87
2021/12/11 11:24:12;;;;;;;61.90;35.20;;;2.60;99.90;;;;;;4991753;28;20482;-86
2021/12/11 11:26:43;;;;;;;60.15;34.10;;;2.70;99.90;;;;;;4990655;28;20100;-86
2021/12/11 11:29:11;;;;;;;65.45;34.28;;;2.80;99.90;;;;;;4958299;28;20043;-89
2021/12/11 11:31:37;;;;;;;63.15;36.28;;;2.80;99.90;;;;;;4991024;28;20507;-86
2021/12/11 11:34:04;;;;;;;66.03;35.97;;;3.60;99.90;;;;;;4977356;28;20418;-88
2021/12/11 11:36:31;;;;;;;66.55;35.53;;;3.00;99.90;;;;;;4994627;28;20054;-88
2021/12/11 11:38:59;;;;;;;56.22;32.83;;;3.00;99.90;;;;;;4995547;28;20129;-86
2021/12/11 11:41:30;;;;;;;59.05;35.20;;;3.10;99.90;;;;;;4978115;28;20089;-82
2021/12/11 11:43:56;;;;;;;57.58;33.00;;;3.20;99.90;;;;;;4993620;28;20043;-85
2021/12/11 11:46:24;;;;;;;59.53;34.05;;;3.20;99.90;;;;;;4977484;28;20057;-84
2021/12/11 11:48:51;;;;;;;58.33;32.65;;;3.70;99.90;;;;;;4992824;28;20061;-85
2021/12/11 11:51:26;;;;;;;61.25;33.78;;;3.30;99.90;;;;;;4994400;28;20073;-88
2021/12/11 11:53:52;;;;;;;55.60;31.85;;;3.40;99.90;;;;;;4994258;28;20058;-86
2021/12/11 11:56:20;;;;;;;57.15;32.50;;;3.50;99.90;;;;;;4977413;28;20372;-89
2021/12/11 11:58:46;;;;;;;50.90;30.40;;;4.30;99.90;;;;;;4992794;28;20106;-89
2021/12/11 12:01:24;;;;;;;52.92;29.33;;;3.70;99.90;;;;;;4993545;28;20508;-88
2021/12/11 12:03:51;;;;;;;49.80;28.50;;;3.70;99.90;;;;;;4976260;28;20483;-89
2021/12/11 12:06:22;;;;;;;56.10;28.77;;;3.80;99.90;;;;;;4977725;28;20051;-87
2021/12/11 12:08:48;;;;;;;52.80;30.02;;;3.80;99.90;;;;;;4977361;28;20039;-91
2021/12/11 12:11:14;;;;;;;52.10;29.67;;;3.80;99.90;;;;;;4977090;28;20057;-88
2021/12/11 12:13:40;;;;;;;48.88;29.23;;;4.40;99.90;;;;;;4992504;28;20078;-90
2021/12/11 12:16:08;;;;;;;52.72;27.67;;;3.80;99.90;;;;;;4992758;28;20138;-88
2021/12/11 12:18:34;;;;;;;49.95;30.20;;;4.80;99.90;;;;;;4992104;28;20101;-89
2021/12/11 12:21:00;;;;;;;49.65;28.10;;;3.90;99.90;;;;;;4976496;28;20046;-88
2021/12/11 12:23:31;;;;;;;45.38;27.48;;;3.90;99.90;;;;;;4992595;28;20042;-85
2021/12/11 12:25:57;;;;;;;52.97;30.45;;;4.30;99.90;;;;;;4976995;28;20050;-84
2021/12/11 12:28:23;;;;;;;51.45;31.45;;;3.90;99.90;;;;;;4992297;28;20054;-84
2021/12/11 12:30:53;;;;;;;49.13;29.70;;;4.50;99.90;;;;;;4991813;28;20054;-84
2021/12/11 12:33:18;;;;;;;48.97;29.60;;;4.10;99.90;;;;;;4976189;28;20069;-84
2021/12/11 12:35:44;;;;;;;50.63;30.52;;;4.10;99.90;;;;;;4975489;28;20065;-84
2021/12/11 12:38:11;;;;;;;47.95;30.13;;;4.80;99.90;;;;;;4976176;28;20454;-86
2021/12/11 12:40:39;;;;;;;52.58;31.05;;;5.10;99.90;;;;;;4975785;28;20062;-86
2021/12/11 12:43:12;;;;;;;60.05;30.73;;;4.00;99.90;;;;;;4976261;28;20086;-86
2021/12/11 12:45:46;;;;;;;51.35;30.63;;;4.40;99.90;;;;;;4975599;28;20479;-85
2021/12/11 12:48:20;;;;;;;51.33;30.17;;;4.00;99.90;;;;;;4992068;28;20051;-86
2021/12/11 12:50:55;;;;;;;52.80;30.42;;;4.10;99.90;;;;;;4991712;28;20046;-85
2021/12/11 12:53:21;;;;;;;54.10;28.90;;;4.10;99.90;;;;;;4976361;28;20455;-85
2021/12/11 12:55:53;;;;;;;55.28;32.08;;;4.60;99.90;;;;;;4973999;28;20108;-83